Wevelgem, Belgium

2:58 AM CET on February 20, 2017 (GMT +0100)
Vrijheidstraat | | Change Station

Elev 59 ft 50.82 °N, 3.17 °E | Updated 8 minutes ago

Overcast
Overcast
46.9 °F
Feels Like 47 °F
N
1.2
Wind Variable Wind from South
Gusts 5.0 mph

Today
High -- | Low -- °F
--% Chance of Precip.
Yesterday
High -- | Low -- °F
Precip. -- in
Pressure 30.12 in
Visibility 2.8 miles
Clouds Few 700 ft
Mostly Cloudy 900 ft
Windchill 47 °F
Dew Point 45 °F
Humidity 94%
Rainfall 0.00 in
Snow Depth Not available.
7:49 AM 6:13 PM
Last Quarter, 38% visible
SPECI EBFN 200154Z 23009KT 4500 -RADZ FEW007 BKN009 08/08 Q1020 GRN
Pressure 30.12 in
Visibility 2.8 miles
Clouds Few 700 ft
Mostly Cloudy 900 ft
Windchill 47 °F
Dew Point 45 °F
Humidity 94%
Rainfall 0.00 in
Snow Depth Not available.
7:49 AM 6:13 PM
Last Quarter, 38% visible
SPECI EBFN 200154Z 23009KT 4500 -RADZ FEW007 BKN009 08/08 Q1020 GRN

Get Your Daily Forecast Email!

Thanks for signing up!

Be on the lookout for a verification email in your inbox.

You'll start receiving the daily forecast at 8 AM.

×

10-Day Weather Forecast

×

Almanac

Astronomy

Feb. 20, 2017 Rise Set
Actual Time
Civil Twilight
Nautical Twilight
Astronomical Twilight
Moon
Length of Visible Light
Length of Day
Tomorrow will be .
, % of the Moon is Illuminated

Today's Extremes

Country Highs Country Lows

Community

WunderPhotos

Upload Photos

1,962,540 photos uploaded!

WunderBlog® & News

Nearby

Air Quality

  Air Quality AQ Index Pollutant
Not available.

Snow Depth

Station Depth Elevation

Earthquake Activity

City Distance Mag. Time & Date
Minimum magnitude displayed is 2.5.

Coastal Water Temperatures

Place Temperature

Stations

Nearby Weather Stations

Station Location Temp. Windchill Dew Point Humidity Wind Precip. Elev Updated Type